createdAt,value
2023-11-29T00:00:41.958Z,0.90
2023-11-29T00:03:10.177Z,0.80
2023-11-29T00:05:44.159Z,1.10
2023-11-29T00:08:14.587Z,1.20
2023-11-29T00:10:42.841Z,1.10
2023-11-29T00:13:12.658Z,1.00
2023-11-29T00:15:41.000Z,1.00
2023-11-29T00:18:10.047Z,0.90
2023-11-29T00:20:38.362Z,1.17
2023-11-29T00:23:06.867Z,1.00
2023-11-29T00:25:35.192Z,1.00
2023-11-29T00:28:03.421Z,0.90
2023-11-29T00:30:33.014Z,1.80
2023-11-29T00:33:01.382Z,0.90
2023-11-29T00:35:29.892Z,1.23
2023-11-29T00:37:58.080Z,1.20
2023-11-29T00:40:26.258Z,1.20
2023-11-29T00:43:00.725Z,1.37
2023-11-29T00:45:34.091Z,1.60
2023-11-29T00:48:02.620Z,2.03
2023-11-29T00:50:31.294Z,1.50
2023-11-29T00:52:59.557Z,1.37
2023-11-29T00:55:35.028Z,1.30
2023-11-29T00:58:04.765Z,1.53
2023-11-29T01:00:34.403Z,1.40
2023-11-29T01:03:03.226Z,1.17
2023-11-29T01:05:31.611Z,1.40
2023-11-29T01:07:59.942Z,1.50
2023-11-29T01:10:28.164Z,1.40
2023-11-29T01:12:56.404Z,1.10
2023-11-29T01:15:24.623Z,1.30
2023-11-29T01:17:54.358Z,1.10
2023-11-29T01:20:22.705Z,1.50
2023-11-29T01:22:51.037Z,1.10
2023-11-29T01:25:19.282Z,1.50
2023-11-29T01:27:47.566Z,1.27
2023-11-29T01:30:16.144Z,1.23
2023-11-29T01:32:44.438Z,1.33
2023-11-29T01:35:14.285Z,1.47
2023-11-29T01:37:42.560Z,1.30
2023-11-29T01:40:11.282Z,1.00
2023-11-29T01:42:39.663Z,1.43
2023-11-29T01:45:09.154Z,1.30
2023-11-29T01:47:39.530Z,1.10
2023-11-29T01:50:11.343Z,1.37
2023-11-29T01:52:43.244Z,1.33
2023-11-29T01:55:14.474Z,1.10
2023-11-29T01:57:43.387Z,1.20
2023-11-29T02:00:13.336Z,1.10
2023-11-29T02:02:42.621Z,1.20
2023-11-29T02:05:12.194Z,1.90
2023-11-29T02:07:41.786Z,1.20
2023-11-29T02:10:11.113Z,1.20
2023-11-29T02:12:39.375Z,1.20
2023-11-29T02:15:10.195Z,2.03
2023-11-29T02:17:38.560Z,1.83
2023-11-29T02:20:08.260Z,1.80
2023-11-29T02:22:38.822Z,1.70
2023-11-29T02:25:09.486Z,2.20
2023-11-29T02:27:37.689Z,4.17
2023-11-29T02:30:07.449Z,1.20
2023-11-29T02:32:35.731Z,1.50
2023-11-29T02:35:04.099Z,1.40
2023-11-29T02:37:32.300Z,1.50
2023-11-29T02:40:00.648Z,1.97
2023-11-29T02:42:30.642Z,1.40
2023-11-29T02:44:58.906Z,2.27
2023-11-29T02:47:27.184Z,1.20
2023-11-29T02:49:55.806Z,1.20
2023-11-29T02:52:24.014Z,1.20
2023-11-29T02:54:52.456Z,1.43
2023-11-29T02:57:20.661Z,1.33
2023-11-29T02:59:50.475Z,1.30
2023-11-29T03:02:18.860Z,1.07
2023-11-29T03:04:47.160Z,1.30
2023-11-29T03:07:15.391Z,1.10
2023-11-29T03:09:43.575Z,1.20
2023-11-29T03:12:11.789Z,1.33
2023-11-29T03:14:39.966Z,1.27
2023-11-29T03:17:09.619Z,1.47
2023-11-29T03:19:37.847Z,2.57
2023-11-29T03:22:06.401Z,2.03
2023-11-29T03:24:34.605Z,3.40
2023-11-29T03:27:02.878Z,1.80
2023-11-29T03:29:31.158Z,1.70
2023-11-29T03:31:59.425Z,6.90
2023-11-29T03:34:29.238Z,2.73
2023-11-29T03:36:57.522Z,1.30
2023-11-29T03:39:25.690Z,2.10
2023-11-29T03:41:53.960Z,1.70
2023-11-29T03:44:22.239Z,2.53
2023-11-29T03:46:50.515Z,1.60
2023-11-29T03:49:18.728Z,1.67
2023-11-29T03:51:49.570Z,5.60
2023-11-29T03:54:17.986Z,3.00
2023-11-29T03:56:46.396Z,1.60
2023-11-29T03:59:14.671Z,3.47
2023-11-29T04:01:42.964Z,6.90
2023-11-29T04:04:11.320Z,2.17
2023-11-29T04:06:39.820Z,2.07
2023-11-29T04:09:09.463Z,2.00
2023-11-29T04:11:37.898Z,3.33
2023-11-29T04:14:06.172Z,2.57
2023-11-29T04:16:35.162Z,2.40
2023-11-29T04:19:03.958Z,2.77
2023-11-29T04:21:34.198Z,1.83
2023-11-29T04:24:02.534Z,1.97
2023-11-29T04:26:33.840Z,1.80
2023-11-29T04:29:04.907Z,2.23
2023-11-29T04:31:34.199Z,5.30
2023-11-29T04:34:09.396Z,2.30
2023-11-29T04:36:49.645Z,4.87
2023-11-29T04:39:19.552Z,3.60
2023-11-29T04:41:49.720Z,3.20
2023-11-29T04:44:18.114Z,4.67
2023-11-29T04:46:46.775Z,4.70
2023-11-29T04:49:15.157Z,4.33
2023-11-29T04:51:43.475Z,5.00
2023-11-29T04:54:11.710Z,3.37
2023-11-29T04:56:39.967Z,4.67
2023-11-29T04:59:09.549Z,4.70
2023-11-29T05:01:37.811Z,5.37
2023-11-29T05:04:06.436Z,7.47
2023-11-29T05:06:34.707Z,3.83
2023-11-29T05:09:03.686Z,5.47
2023-11-29T05:11:32.421Z,6.57
2023-11-29T05:14:00.677Z,8.80
2023-11-29T05:16:31.049Z,10.83
2023-11-29T05:18:59.821Z,7.90
2023-11-29T05:39:07.277Z,6.50
2023-11-29T05:42:00.762Z,8.00
2023-11-29T05:44:29.372Z,9.47
2023-11-29T05:46:57.609Z,13.13
2023-11-29T05:49:25.983Z,7.33
2023-11-29T05:51:54.626Z,9.80
2023-11-29T05:54:23.098Z,6.57
2023-11-29T05:56:51.345Z,7.73
2023-11-29T05:59:20.993Z,7.43
2023-11-29T06:01:49.926Z,7.40
2023-11-29T06:04:18.478Z,7.20
2023-11-29T06:06:46.702Z,10.37
2023-11-29T06:09:16.172Z,14.63
2023-11-29T06:11:44.365Z,11.77
2023-11-29T06:14:13.128Z,12.73
2023-11-29T06:16:42.679Z,31.80
2023-11-29T06:19:10.952Z,9.97
2023-11-29T06:21:39.081Z,8.23
2023-11-29T06:24:08.405Z,6.83
2023-11-29T06:26:36.644Z,8.87
2023-11-29T06:29:05.780Z,7.73
2023-11-29T06:31:34.104Z,12.40
2023-11-29T06:34:04.170Z,14.03
2023-11-29T06:36:35.967Z,27.30
2023-11-29T06:39:05.537Z,18.83
2023-11-29T06:41:33.892Z,14.10
2023-11-29T06:44:02.165Z,23.10
2023-11-29T06:46:30.503Z,15.87
2023-11-29T06:48:58.996Z,16.63
2023-11-29T06:51:29.771Z,17.10
2023-11-29T06:53:58.096Z,11.80
2023-11-29T06:56:26.280Z,14.90
2023-11-29T06:58:54.527Z,16.43
2023-11-29T07:01:22.767Z,17.20
2023-11-29T07:03:51.282Z,22.13
2023-11-29T07:06:23.680Z,19.13
2023-11-29T07:08:53.404Z,11.17
2023-11-29T07:11:21.682Z,13.50
2023-11-29T07:13:49.988Z,13.30
2023-11-29T07:16:18.984Z,15.73
2023-11-29T07:18:47.340Z,16.90
2023-11-29T07:21:15.521Z,16.90
2023-11-29T07:23:43.832Z,19.67
2023-11-29T07:26:13.882Z,15.43
2023-11-29T07:28:42.283Z,21.13
2023-11-29T07:31:11.238Z,11.83
2023-11-29T07:33:39.560Z,10.17
2023-11-29T07:36:11.488Z,17.07
2023-11-29T07:38:39.963Z,8.10
2023-11-29T07:41:08.465Z,11.67
2023-11-29T07:43:38.249Z,11.73
2023-11-29T07:46:06.657Z,13.93
2023-11-29T07:48:34.937Z,10.63
2023-11-29T07:51:03.388Z,12.33
2023-11-29T07:53:31.741Z,20.37
2023-11-29T07:55:59.937Z,15.63
2023-11-29T07:58:31.698Z,11.57
2023-11-29T08:01:04.120Z,7.53
2023-11-29T08:03:32.307Z,5.07
2023-11-29T08:06:00.624Z,10.20
2023-11-29T08:08:28.954Z,9.13
2023-11-29T08:10:57.187Z,4.30
2023-11-29T08:13:26.229Z,6.00
2023-11-29T08:15:57.306Z,5.23
2023-11-29T08:18:27.115Z,3.90
2023-11-29T08:20:55.609Z,11.43
2023-11-29T08:23:24.007Z,7.87
2023-11-29T08:25:52.889Z,5.70
2023-11-29T08:28:21.106Z,8.17
2023-11-29T08:30:49.365Z,6.40
2023-11-29T08:33:18.589Z,7.63
2023-11-29T08:35:49.209Z,5.47
2023-11-29T08:38:17.644Z,3.63
2023-11-29T08:40:45.924Z,4.27
2023-11-29T08:43:21.594Z,4.90
2023-11-29T08:45:52.531Z,5.87
2023-11-29T08:48:24.179Z,4.80
2023-11-29T08:50:55.397Z,4.93
2023-11-29T08:53:33.338Z,4.40
2023-11-29T08:56:17.695Z,4.43
2023-11-29T08:58:46.660Z,4.00
2023-11-29T09:01:15.156Z,3.23
2023-11-29T09:03:43.790Z,4.87
2023-11-29T09:06:14.525Z,5.20
2023-11-29T09:08:43.737Z,4.33
2023-11-29T09:11:12.055Z,6.57
2023-11-29T09:13:40.293Z,4.77
2023-11-29T09:16:09.701Z,5.13
2023-11-29T09:18:38.879Z,6.70
2023-11-29T09:21:07.417Z,5.37
2023-11-29T09:23:37.030Z,4.23
2023-11-29T09:26:05.335Z,3.80
2023-11-29T09:28:33.601Z,6.10
2023-11-29T09:31:04.719Z,4.80
2023-11-29T09:33:34.102Z,5.03
2023-11-29T09:36:02.511Z,6.33
2023-11-29T09:38:30.812Z,6.53
2023-11-29T09:41:00.928Z,5.27
2023-11-29T09:43:30.170Z,4.30
2023-11-29T09:45:58.579Z,4.10
2023-11-29T09:48:26.825Z,5.13
2023-11-29T09:50:55.622Z,5.40
2023-11-29T09:53:24.965Z,3.53
2023-11-29T09:55:54.076Z,4.40
2023-11-29T09:58:23.624Z,8.37
2023-11-29T10:00:52.016Z,3.83
2023-11-29T10:03:22.036Z,4.67
2023-11-29T10:05:51.804Z,4.50
2023-11-29T10:08:21.175Z,5.40
2023-11-29T10:10:49.472Z,6.10
2023-11-29T10:13:18.313Z,4.73
2023-11-29T10:15:48.789Z,4.63
2023-11-29T10:18:19.011Z,4.10
2023-11-29T10:20:56.224Z,4.80
2023-11-29T10:23:33.855Z,4.33
2023-11-29T10:26:02.134Z,5.40
2023-11-29T10:28:30.340Z,4.23
2023-11-29T10:31:01.251Z,5.23
2023-11-29T10:33:32.028Z,4.83
2023-11-29T10:36:03.072Z,4.07
2023-11-29T10:38:35.320Z,5.03
2023-11-29T10:41:04.236Z,4.23
2023-11-29T10:43:35.657Z,4.43
2023-11-29T10:46:14.068Z,3.90
2023-11-29T10:48:50.688Z,5.90
2023-11-29T10:51:20.399Z,5.30
2023-11-29T10:53:51.337Z,4.30
2023-11-29T10:56:21.772Z,4.93
2023-11-29T10:58:54.454Z,5.77
2023-11-29T11:01:34.985Z,4.30
2023-11-29T11:04:04.642Z,4.97
2023-11-29T11:06:43.588Z,4.87
2023-11-29T11:09:32.643Z,5.07
2023-11-29T11:12:01.651Z,7.57
2023-11-29T11:14:32.079Z,5.27
2023-11-29T11:17:04.280Z,4.80
2023-11-29T11:19:41.897Z,4.23
2023-11-29T11:22:11.920Z,4.47
2023-11-29T11:25:00.731Z,6.87
2023-11-29T11:27:33.425Z,5.83
2023-11-29T11:30:26.390Z,5.83
2023-11-29T11:32:57.879Z,4.90
2023-11-29T11:35:33.451Z,5.47
2023-11-29T11:38:04.276Z,4.40
2023-11-29T11:40:34.076Z,5.50
2023-11-29T11:43:03.477Z,6.90
2023-11-29T11:45:34.029Z,5.60
2023-11-29T11:48:05.416Z,6.23
2023-11-29T11:50:34.351Z,4.70
2023-11-29T11:53:04.838Z,5.30
2023-11-29T11:55:35.715Z,4.20
2023-11-29T11:58:06.077Z,6.57
2023-11-29T12:00:35.217Z,5.00
2023-11-29T12:03:06.896Z,4.83
2023-11-29T12:05:36.267Z,5.40
2023-11-29T12:08:07.328Z,5.57
2023-11-29T12:10:36.459Z,5.17
2023-11-29T12:13:04.790Z,8.20
2023-11-29T12:15:35.900Z,5.93
2023-11-29T12:18:13.769Z,5.97
2023-11-29T12:20:44.097Z,5.43
2023-11-29T12:23:14.625Z,5.20
2023-11-29T12:25:43.786Z,6.17
2023-11-29T12:28:13.569Z,6.80
2023-11-29T12:30:43.851Z,5.07
2023-11-29T12:33:12.238Z,7.50
2023-11-29T12:35:40.543Z,5.60
2023-11-29T12:38:10.224Z,4.87
2023-11-29T12:40:38.404Z,5.97
2023-11-29T12:43:07.354Z,7.37
2023-11-29T12:45:35.602Z,7.63
2023-11-29T12:48:04.998Z,5.70
2023-11-29T12:50:33.588Z,6.83
2023-11-29T12:53:02.001Z,10.43
2023-11-29T12:55:31.572Z,8.07
2023-11-29T12:57:59.942Z,6.57
2023-11-29T13:00:28.247Z,7.00
2023-11-29T13:02:56.615Z,6.63
2023-11-29T13:05:24.797Z,6.27
2023-11-29T13:07:53.027Z,6.50
2023-11-29T13:10:21.287Z,5.43
2023-11-29T13:12:50.988Z,5.70
2023-11-29T13:15:20.334Z,6.73
2023-11-29T13:17:48.716Z,6.17
2023-11-29T13:20:17.036Z,7.53
2023-11-29T13:22:45.192Z,7.20
2023-11-29T13:25:13.451Z,9.53
2023-11-29T13:27:41.792Z,11.17
2023-11-29T13:30:13.024Z,7.07
2023-11-29T13:32:41.373Z,6.53
2023-11-29T13:35:12.257Z,6.30
2023-11-29T13:37:40.862Z,7.93
2023-11-29T13:40:10.575Z,7.27
2023-11-29T13:42:38.896Z,6.67
2023-11-29T13:45:09.414Z,7.33
2023-11-29T13:47:40.852Z,8.67
2023-11-29T13:50:09.636Z,6.67
2023-11-29T13:52:38.445Z,8.57
2023-11-29T13:55:07.932Z,8.77
2023-11-29T13:57:36.357Z,7.13
2023-11-29T14:00:06.215Z,9.60
2023-11-29T14:02:34.874Z,7.40
2023-11-29T14:05:04.953Z,8.70
2023-11-29T14:07:33.370Z,11.80
2023-11-29T14:10:01.598Z,12.97
2023-11-29T14:12:29.770Z,7.70
2023-11-29T14:14:58.104Z,8.43
2023-11-29T14:17:26.421Z,7.03
2023-11-29T14:19:54.678Z,8.13
2023-11-29T14:22:24.772Z,8.90
2023-11-29T14:24:53.047Z,8.90
2023-11-29T14:27:21.549Z,8.97
2023-11-29T14:29:49.878Z,9.93
2023-11-29T14:32:18.671Z,7.93
2023-11-29T14:34:49.163Z,9.77
2023-11-29T14:37:17.691Z,7.93
2023-11-29T14:39:47.305Z,24.03
2023-11-29T14:42:15.597Z,8.47
2023-11-29T14:44:43.841Z,8.53
2023-11-29T14:47:12.072Z,9.90
2023-11-29T14:49:40.517Z,15.30
2023-11-29T14:52:08.849Z,8.50
2023-11-29T14:54:37.049Z,10.53
2023-11-29T14:57:07.067Z,15.20
2023-11-29T14:59:35.894Z,11.43
2023-11-29T15:02:04.390Z,12.60
2023-11-29T15:04:32.747Z,9.40
2023-11-29T15:07:01.034Z,8.63
2023-11-29T15:09:29.322Z,14.30
2023-11-29T15:11:57.590Z,12.70
2023-11-29T15:14:27.292Z,14.80
2023-11-29T15:16:55.477Z,16.23
2023-11-29T15:19:23.735Z,13.63
2023-11-29T15:21:52.043Z,18.00
2023-11-29T15:24:20.323Z,16.47
2023-11-29T15:26:49.296Z,16.50
2023-11-29T15:29:17.663Z,16.00
2023-11-29T15:31:47.289Z,17.17
2023-11-29T15:34:15.655Z,12.77
2023-11-29T15:36:43.912Z,14.43
2023-11-29T15:39:12.528Z,15.83
2023-11-29T15:41:42.450Z,15.90
2023-11-29T15:44:10.895Z,16.63
2023-11-29T15:46:39.129Z,14.30
2023-11-29T15:49:08.926Z,16.73
2023-11-29T15:51:37.625Z,17.83
2023-11-29T15:54:06.092Z,14.67
2023-11-29T15:56:35.227Z,26.87
2023-11-29T15:59:03.660Z,20.13
2023-11-29T16:01:32.003Z,21.87
2023-11-29T16:04:00.858Z,32.37
2023-11-29T16:06:31.208Z,19.80
2023-11-29T16:08:59.524Z,16.87
2023-11-29T16:11:27.791Z,17.73
2023-11-29T16:13:56.073Z,19.57
2023-11-29T16:16:25.525Z,20.27
2023-11-29T16:18:53.841Z,21.80
2023-11-29T16:21:22.647Z,22.17
2023-11-29T16:23:52.977Z,21.77
2023-11-29T16:26:21.309Z,24.70
2023-11-29T16:28:49.505Z,26.07
2023-11-29T16:31:17.813Z,23.70
2023-11-29T16:33:46.058Z,24.07
2023-11-29T16:36:14.706Z,26.20
2023-11-29T16:38:42.948Z,27.40
2023-11-29T16:41:12.682Z,24.70
2023-11-29T16:43:40.946Z,29.20
2023-11-29T16:46:09.678Z,24.57
2023-11-29T16:48:38.117Z,31.03
2023-11-29T16:51:07.315Z,24.03
2023-11-29T16:53:35.565Z,24.03
2023-11-29T16:56:05.844Z,28.17
2023-11-29T16:58:37.022Z,30.60
2023-11-29T17:01:05.664Z,26.93
2023-11-29T17:03:34.038Z,34.50
2023-11-29T17:06:02.402Z,33.33
2023-11-29T17:08:30.676Z,33.53
2023-11-29T17:10:58.931Z,30.37
2023-11-29T17:13:27.097Z,33.57
2023-11-29T17:15:56.797Z,41.07
2023-11-29T17:18:25.398Z,38.37
2023-11-29T17:20:53.706Z,35.93
2023-11-29T17:23:21.924Z,36.17
2023-11-29T17:25:50.180Z,33.70
2023-11-29T17:28:18.428Z,34.53
2023-11-29T17:30:47.254Z,27.77
2023-11-29T17:33:16.988Z,27.43
2023-11-29T17:35:45.747Z,28.30
2023-11-29T17:38:16.695Z,29.27
2023-11-29T17:40:45.474Z,35.03
2023-11-29T17:43:13.742Z,29.80
2023-11-29T17:45:42.687Z,30.70
2023-11-29T17:48:11.121Z,32.50
2023-11-29T17:50:40.887Z,29.00
2023-11-29T17:53:09.536Z,27.00
2023-11-29T17:55:37.729Z,29.60
2023-11-29T17:58:05.918Z,37.23
2023-11-29T18:00:34.512Z,29.03
2023-11-29T18:03:03.139Z,22.50
2023-11-29T18:05:31.598Z,19.77
2023-11-29T18:08:01.214Z,24.80
2023-11-29T18:10:49.876Z,22.77
2023-11-29T18:13:21.174Z,23.10
2023-11-29T18:15:50.206Z,20.60
2023-11-29T18:18:19.243Z,21.17
2023-11-29T18:20:49.401Z,21.07
2023-11-29T18:23:19.211Z,20.80
2023-11-29T18:25:56.065Z,19.27
2023-11-29T18:28:27.891Z,20.33
2023-11-29T18:30:56.402Z,23.27
2023-11-29T18:33:25.454Z,22.20
2023-11-29T18:35:56.714Z,18.93
2023-11-29T18:38:27.940Z,22.00
2023-11-29T18:40:56.576Z,20.50
2023-11-29T18:43:25.527Z,24.90
2023-11-29T18:45:53.946Z,17.80
2023-11-29T18:48:22.506Z,16.20
2023-11-29T18:50:51.332Z,17.63
2023-11-29T18:53:19.744Z,18.60
2023-11-29T18:55:50.026Z,15.07
2023-11-29T18:58:18.895Z,21.97
2023-11-29T19:00:50.988Z,14.80
2023-11-29T19:03:21.429Z,16.60
2023-11-29T19:05:51.207Z,19.73
2023-11-29T19:08:20.749Z,16.53
2023-11-29T19:10:52.558Z,14.77
2023-11-29T19:13:22.902Z,19.73
2023-11-29T19:15:51.755Z,15.87
2023-11-29T19:18:20.748Z,15.63
2023-11-29T19:20:50.185Z,16.90
2023-11-29T19:23:30.032Z,17.43
2023-11-29T19:26:09.134Z,18.87
2023-11-29T19:28:38.457Z,19.03
2023-11-29T19:31:08.690Z,15.77
2023-11-29T19:33:39.051Z,20.13
2023-11-29T19:36:09.140Z,16.00
2023-11-29T19:38:38.560Z,24.37
2023-11-29T19:41:10.964Z,25.27
2023-11-29T19:43:40.641Z,19.73
2023-11-29T19:46:13.107Z,22.07
2023-11-29T19:48:42.888Z,23.90
2023-11-29T19:51:14.398Z,20.00
2023-11-29T19:53:44.359Z,25.77
2023-11-29T19:56:15.760Z,28.80
2023-11-29T19:58:46.708Z,25.23
2023-11-29T20:01:17.166Z,23.93
2023-11-29T20:03:47.976Z,29.20
2023-11-29T20:06:27.830Z,23.87
2023-11-29T20:09:02.312Z,25.27
2023-11-29T20:11:36.236Z,22.23
2023-11-29T20:14:13.387Z,24.47
2023-11-29T20:16:49.899Z,22.70
2023-11-29T20:19:20.514Z,23.37
2023-11-29T20:21:51.516Z,20.13
2023-11-29T20:24:22.517Z,25.67
2023-11-29T20:26:53.935Z,24.50
2023-11-29T20:29:23.771Z,25.70
2023-11-29T20:31:53.516Z,23.23
2023-11-29T20:34:34.710Z,23.00
2023-11-29T20:37:08.414Z,21.17
2023-11-29T20:39:37.788Z,26.73
2023-11-29T20:42:09.241Z,23.20
2023-11-29T20:44:38.365Z,22.07
2023-11-29T20:47:07.866Z,19.53
2023-11-29T20:49:38.209Z,22.70
2023-11-29T20:52:07.465Z,23.90
2023-11-29T20:54:36.063Z,22.57
2023-11-29T20:57:06.229Z,22.20
2023-11-29T20:59:37.416Z,24.77
2023-11-29T21:02:06.156Z,22.40
2023-11-29T21:04:34.471Z,21.57
2023-11-29T21:07:02.910Z,18.43
2023-11-29T21:09:31.249Z,18.20
2023-11-29T21:11:59.700Z,24.93
2023-11-29T21:14:27.920Z,17.83
2023-11-29T21:16:58.248Z,18.73
2023-11-29T21:19:26.713Z,16.73
2023-11-29T21:21:55.241Z,17.80
2023-11-29T21:24:23.705Z,18.70
2023-11-29T21:26:52.322Z,21.03
2023-11-29T21:29:20.784Z,20.57
2023-11-29T21:31:49.531Z,24.80
2023-11-29T21:34:19.143Z,18.87
2023-11-29T21:36:47.385Z,19.47
2023-11-29T21:39:15.582Z,17.97
2023-11-29T21:41:45.660Z,17.93
2023-11-29T21:44:14.134Z,20.70
2023-11-29T21:46:42.925Z,19.00
2023-11-29T21:49:11.207Z,20.10
2023-11-29T21:51:40.795Z,23.33
2023-11-29T21:54:09.679Z,21.43
2023-11-29T21:56:37.862Z,18.90
2023-11-29T21:59:06.056Z,17.97
2023-11-29T22:01:34.388Z,19.17
2023-11-29T22:04:02.910Z,18.80
2023-11-29T22:06:31.117Z,19.67
2023-11-29T22:09:00.805Z,20.47
2023-11-29T22:11:30.027Z,19.20
2023-11-29T22:13:58.215Z,19.77
2023-11-29T22:16:26.477Z,19.70
2023-11-29T22:18:56.043Z,23.30
2023-11-29T22:21:25.615Z,21.93
2023-11-29T22:23:54.062Z,18.93
2023-11-29T22:26:24.489Z,22.47
2023-11-29T22:28:52.731Z,24.03
2023-11-29T22:31:21.349Z,19.00
2023-11-29T22:33:49.672Z,21.37
2023-11-29T22:36:19.469Z,17.97
2023-11-29T22:38:48.063Z,19.73
2023-11-29T22:41:26.008Z,19.47
2023-11-29T22:43:55.996Z,19.80
2023-11-29T22:46:26.569Z,23.10
2023-11-29T22:48:55.408Z,18.00
2023-11-29T22:51:25.927Z,18.20
2023-11-29T22:53:54.461Z,17.27
2023-11-29T22:56:24.060Z,20.17
2023-11-29T22:58:52.310Z,21.17
2023-11-29T23:01:21.062Z,22.93
2023-11-29T23:03:49.363Z,18.97
2023-11-29T23:06:17.677Z,19.97
2023-11-29T23:08:45.948Z,23.10
2023-11-29T23:11:14.116Z,19.77
2023-11-29T23:13:43.768Z,19.10
2023-11-29T23:16:12.689Z,19.40
2023-11-29T23:18:41.151Z,21.67
2023-11-29T23:21:09.871Z,18.83
2023-11-29T23:23:40.226Z,19.07
2023-11-29T23:26:08.730Z,20.43
2023-11-29T23:28:36.982Z,20.53
2023-11-29T23:31:07.113Z,17.70
2023-11-29T23:33:35.672Z,20.83
2023-11-29T23:36:05.954Z,20.67
2023-11-29T23:38:35.828Z,18.00
2023-11-29T23:41:04.054Z,18.80
2023-11-29T23:43:32.365Z,18.53
2023-11-29T23:46:00.501Z,21.73
2023-11-29T23:48:30.172Z,18.83
2023-11-29T23:50:58.525Z,16.20
2023-11-29T23:53:26.766Z,18.87
2023-11-29T23:55:55.016Z,19.57
2023-11-29T23:58:23.240Z,18.27
